Flight Track Log - Related Links

Times and Time Zones

All times are in EDT time to prevent confusion due to time zone crossing. See the N900PB flight status page for this flight to view local times or setup timezone preferences in your user account.

Time Position Orientation Groundspeed Altitude Reporting Facility
EDT Latitude Longitude Course Direction KTS MPH feet Rate Location/Type
Thu 06:43:15 PM 30.4687 -85.7831 88° East  Level FlightAware Approximate
Thu 06:44:15 PM 30.4483 -85.7854 84° East  Level FlightAware Approximate
Thu 06:45:15 PM 30.5327 -85.7667 101° East  Level FlightAware Approximate
Thu 06:46:15 PM 30.6222 -85.7522 118° Southeast  Level FlightAware Approximate
Thu 06:47:15 PM 30.7125 -85.7500 131° Southeast  Level FlightAware Approximate
Thu 06:48:16 PM 30.4792 -85.4378 77° East 274 315 12,900  Level Jacksonville Center
Thu 06:49:16 PM 30.4953 -85.3589 79° East 261 300 15,100 2,150 Climbing Jacksonville Center
Thu 06:50:16 PM 30.5072 -85.2844 52° Northeast 249 287 17,200 1,900 Climbing Jacksonville Center
Thu 06:51:16 PM 30.5481 -85.2228 15° North 222 255 18,900 1,800 Climbing Jacksonville Center
Thu 06:52:16 PM 30.6067 -85.2047 20° North 202 232 20,800 1,600 Climbing Jacksonville Center
Thu 06:53:16 PM 30.6656 -85.1797 North 207 238 22,100 1,050 Climbing Jacksonville Center
Thu 06:54:16 PM 30.7306 -85.1717 North 216 249 22,900 1,150 Climbing Jacksonville Center
Thu 06:55:16 PM 30.8036 -85.1686 North 239 275 24,400 1,450 Climbing Jacksonville Center
Thu 06:56:16 PM 30.8747 -85.1581 11° North 250 288 25,800 1,150 Climbing Jacksonville Center
Thu 06:57:16 PM 30.9503 -85.1406 13° North 261 300 26,700 1,100 Climbing Jacksonville Center
Thu 06:58:16 PM 31.0258 -85.1206 11° North 267 307 28,000 1,131 Climbing Jacksonville Center
Thu 07:00:27 PM 31.2017 -85.0803 North 275 316 30,300 1,068 Climbing Atlanta Center
Thu 07:01:27 PM 31.2811 -85.0667 12° North 280 322 31,400 1,109 Climbing Atlanta Center
Thu 07:02:26 PM 31.3564 -85.0481 12° North 275 316 32,500 807 Climbing Atlanta Center
Thu 07:03:26 PM 31.4339 -85.0294 11° North 275 316 33,000 248 Climbing Atlanta Center
Thu 07:04:27 PM 31.5194 -85.0108 12° North 291 335 33,000  Level Atlanta Center
Thu 07:05:26 PM 31.6114 -84.9875 North 313 360 33,000  Level Atlanta Center
Thu 07:06:26 PM 31.7078 -84.9689 10° North 331 381 33,000  Level Atlanta Center
Thu 07:07:26 PM 31.8058 -84.9481 11° North 346 398 33,000  Level Atlanta Center
Thu 07:08:26 PM 31.9083 -84.9244 10° North 357 411 33,000 -50 Level Atlanta Center
Thu 07:09:26 PM 32.0086 -84.9033 11° North 362 417 32,900  Descending Atlanta Center
Thu 07:10:26 PM 32.1111 -84.8800 11° North 367 422 33,000 50 Climbing Atlanta Center
Thu 07:11:26 PM 32.2136 -84.8564 12° North 372 428 33,000  Level Atlanta Center
Thu 07:12:26 PM 32.3139 -84.8303 10° North 379 436 33,000  Level Atlanta Center
Thu 07:13:26 PM 32.4289 -84.8067 10° North 384 442 33,000  Level Atlanta Center
Thu 07:14:26 PM 32.5375 -84.7831 12° North 390 449 33,000  Level Atlanta Center
Thu 07:15:26 PM 32.6419 -84.7567 10° North 390 449 33,000  Level Atlanta Center
Thu 07:16:26 PM 32.7508 -84.7328 11° North 390 449 33,000  Level Atlanta Center
Thu 07:17:26 PM 32.8614 -84.7067 11° North 390 449 33,000  Level Atlanta Center
Thu 07:18:27 PM 32.9703 -84.6803 11° North 390 449 33,000  Level Atlanta Center
Thu 07:19:26 PM 33.0767 -84.6561 North 390 449 33,000  Level Atlanta Center
Thu 07:20:26 PM 33.1728 -84.6369 14° North 395 455 33,000  Level Atlanta Center
Thu 07:21:26 PM 33.2817 -84.6053 11° North 390 449 33,000  Level Atlanta Center
Thu 07:22:26 PM 33.3903 -84.5811 11° North 390 449 33,000  Level Atlanta Center
Thu 07:23:26 PM 33.4989 -84.5569 North 390 449 33,000  Level Atlanta Center
Thu 07:24:26 PM 33.6200 -84.5328 15° North 390 449 33,000  Level Atlanta Center
Thu 07:25:27 PM 33.7100 -84.5033 North 393 452 33,000 -50 Level Atlanta Center
Thu 07:26:26 PM 33.8228 -84.4814 13° North 388 447 32,900 -756 Descending Atlanta Center
Thu 07:27:26 PM 33.9314 -84.4519 10° North 394 453 31,500 -1,350 Descending Atlanta Center
Thu 07:28:26 PM 34.0483 -84.4275 11° North 405 466 30,200 -1,450 Descending Atlanta Center
Thu 07:29:26 PM 34.1653 -84.4003 14° North 416 479 28,600 -1,600 Descending Atlanta Center
Thu 07:30:26 PM 34.2739 -84.3681 11° North 409 471 27,000 -1,750 Descending Atlanta Center
Thu 07:31:26 PM 34.3825 -84.3433 North 404 465 25,100 -1,289 Descending Atlanta Center
Thu 07:32:27 PM 34.4931 -84.3211 12° North 404 465 24,400 -850 Descending Atlanta Center
Thu 07:33:26 PM 34.5997 -84.2936 10° North 396 456 23,400 -900 Descending Atlanta Center
Thu 07:34:27 PM 34.7039 -84.2711 353° North 384 442 22,600 -700 Descending Atlanta Center
Thu 07:35:26 PM 34.8144 -84.2867 335° Northwest 362 417 22,000 -303 Descending Atlanta Center
Thu 07:36:26 PM 34.9064 -84.3378 341° North 357 411 22,000 -99 Level Atlanta Center
Thu 07:37:27 PM 35.0022 -84.3786 18° North 357 411 21,800 -600 Descending Atlanta Center
Thu 07:38:26 PM 35.0983 -84.3408 18° North 333 383 20,800 -756 Descending Atlanta Center
Thu 07:39:26 PM 35.1858 -84.3056 11° North 333 383 20,300 -1,200 Descending Atlanta Center
Thu 07:40:26 PM 35.2717 -84.2856 North 327 376 18,400 -2,400 Descending Atlanta Center
Thu 07:41:26 PM 35.3572 -84.2756 360° North 316 364 15,500 -2,850 Descending Atlanta Center
Thu 07:42:26 PM 35.4364 -84.2758 20° North 297 342 12,700 -2,950 Descending Atlanta Center
Thu 07:43:26 PM 35.5117 -84.2428 38° Northeast 285 328 9,600 -2,650 Descending Atlanta Center
Thu 07:44:26 PM 35.5681 -84.1894 49° Northeast 254 292 7,400 -2,050 Descending Atlanta Center
Thu 07:45:26 PM 35.6056 -84.1358 37° Northeast 235 270 5,500 -1,750 Descending Atlanta Center
Thu 07:46:26 PM 35.6494 -84.0950 16° North 211 243 3,900 -1,300 Descending Atlanta Center
Thu 07:47:26 PM 35.6994 -84.0772 18° North 189 217 2,900 -850 Descending Atlanta Center
Thu 07:48:26 PM 35.7433 -84.0592 28° Northeast 173 199 2,200 -650 Descending Atlanta Center
Thu 07:49:26 PM 35.7789 -84.0361 28° Northeast 156 180 1,600 -600 Descending Atlanta Center

Login

Don't have an account? Register now (free) for customized features, flight alerts, and more!